sensor_id;sensor_type;location;lat;lon;timestamp;pressure;altitude;pressure_sealevel;temperature;humidity
20027;BME280;10174;42.688;23.344;2023-03-20T00:01:24;95651.75;;;4.42;73.17
20027;BME280;10174;42.688;23.344;2023-03-20T00:03:51;95655.81;;;4.45;73.51
20027;BME280;10174;42.688;23.344;2023-03-20T00:06:18;95535.66;;;3.66;72.87
20027;BME280;10174;42.688;23.344;2023-03-20T00:08:45;95646.41;;;4.42;73.24
20027;BME280;10174;42.688;23.344;2023-03-20T00:11:32;95567.41;;;3.92;73.45
20027;BME280;10174;42.688;23.344;2023-03-20T00:13:59;95651.38;;;4.39;73.76
20027;BME280;10174;42.688;23.344;2023-03-20T00:16:33;95548.25;;;3.45;74.72
20027;BME280;10174;42.688;23.344;2023-03-20T00:18:59;95552.09;;;3.56;74.84
20027;BME280;10174;42.688;23.344;2023-03-20T00:21:24;95639.50;;;4.03;74.79
20027;BME280;10174;42.688;23.344;2023-03-20T00:23:50;95622.59;;;3.97;75.18
20027;BME280;10174;42.688;23.344;2023-03-20T00:26:17;95567.59;;;3.59;75.73
20027;BME280;10174;42.688;23.344;2023-03-20T00:28:45;95647.91;;;4.06;75.72
20027;BME280;10174;42.688;23.344;2023-03-20T00:33:55;95508.44;;;3.38;75.12
20027;BME280;10174;42.688;23.344;2023-03-20T00:36:21;95639.44;;;4.16;75.57
20027;BME280;10174;42.688;23.344;2023-03-20T00:38:47;95519.03;;;3.45;75.10
20027;BME280;10174;42.688;23.344;2023-03-20T00:43:48;95628.25;;;4.07;76.45
20027;BME280;10174;42.688;23.344;2023-03-20T00:46:14;95497.97;;;3.12;75.72
20027;BME280;10174;42.688;23.344;2023-03-20T00:48:41;95516.28;;;3.20;76.02
20027;BME280;10174;42.688;23.344;2023-03-20T00:51:07;95579.09;;;3.53;75.99
20027;BME280;10174;42.688;23.344;2023-03-20T00:53:33;95522.06;;;3.03;77.32
20027;BME280;10174;42.688;23.344;2023-03-20T00:56:00;95590.56;;;3.47;77.35
20027;BME280;10174;42.688;23.344;2023-03-20T00:58:25;95577.91;;;3.35;77.09
20027;BME280;10174;42.688;23.344;2023-03-20T01:00:51;95628.47;;;3.67;77.37
20027;BME280;10174;42.688;23.344;2023-03-20T01:03:22;95619.91;;;3.65;77.61
20027;BME280;10174;42.688;23.344;2023-03-20T01:05:49;95629.91;;;3.63;77.44
20027;BME280;10174;42.688;23.344;2023-03-20T01:08:16;95619.47;;;3.68;77.65
20027;BME280;10174;42.688;23.344;2023-03-20T01:10:43;95611.84;;;3.79;76.90
20027;BME280;10174;42.688;23.344;2023-03-20T01:13:19;95548.47;;;3.44;76.70
20027;BME280;10174;42.688;23.344;2023-03-20T01:15:46;95516.34;;;3.07;77.85
20027;BME280;10174;42.688;23.344;2023-03-20T01:18:14;95470.78;;;2.64;78.11
20027;BME280;10174;42.688;23.344;2023-03-20T01:20:41;95555.53;;;3.18;78.71
20027;BME280;10174;42.688;23.344;2023-03-20T01:23:06;95556.53;;;3.17;78.67
20027;BME280;10174;42.688;23.344;2023-03-20T01:25:32;95583.66;;;3.32;78.56
20027;BME280;10174;42.688;23.344;2023-03-20T01:27:57;95592.84;;;3.36;78.92
20027;BME280;10174;42.688;23.344;2023-03-20T01:30:25;95600.81;;;3.36;79.00
20027;BME280;10174;42.688;23.344;2023-03-20T01:32:51;95536.41;;;2.96;78.84
20027;BME280;10174;42.688;23.344;2023-03-20T01:35:20;95587.31;;;3.31;78.75
20027;BME280;10174;42.688;23.344;2023-03-20T01:37:46;95488.31;;;2.65;78.80
20027;BME280;10174;42.688;23.344;2023-03-20T01:40:29;95611.81;;;3.40;78.92
20027;BME280;10174;42.688;23.344;2023-03-20T01:42:56;95529.91;;;2.85;79.14
20027;BME280;10174;42.688;23.344;2023-03-20T01:45:25;95612.03;;;3.38;79.29
20027;BME280;10174;42.688;23.344;2023-03-20T01:47:52;95492.22;;;2.63;78.89
20027;BME280;10174;42.688;23.344;2023-03-20T01:55:24;95561.13;;;2.96;79.18
20027;BME280;10174;42.688;23.344;2023-03-20T01:57:50;95625.75;;;3.29;79.89
20027;BME280;10174;42.688;23.344;2023-03-20T02:00:17;95502.84;;;2.63;79.21
20027;BME280;10174;42.688;23.344;2023-03-20T02:02:45;95450.84;;;2.42;78.40
20027;BME280;10174;42.688;23.344;2023-03-20T02:05:14;95592.50;;;3.19;79.22
20027;BME280;10174;42.688;23.344;2023-03-20T02:07:46;95606.16;;;3.23;79.47
20027;BME280;10174;42.688;23.344;2023-03-20T02:10:15;95613.91;;;3.25;79.95
20027;BME280;10174;42.688;23.344;2023-03-20T02:12:42;95515.47;;;2.61;79.95
20027;BME280;10174;42.688;23.344;2023-03-20T02:15:08;95567.66;;;2.94;79.93
20027;BME280;10174;42.688;23.344;2023-03-20T02:17:35;95601.69;;;3.17;80.10
20027;BME280;10174;42.688;23.344;2023-03-20T02:20:23;95555.22;;;2.81;80.61
20027;BME280;10174;42.688;23.344;2023-03-20T02:26:17;95608.44;;;3.13;80.74
20027;BME280;10174;42.688;23.344;2023-03-20T02:29:26;95617.66;;;3.03;81.42
20027;BME280;10174;42.688;23.344;2023-03-20T02:40:24;95609.09;;;2.88;81.26
20027;BME280;10174;42.688;23.344;2023-03-20T02:45:27;95598.91;;;2.92;81.06
20027;BME280;10174;42.688;23.344;2023-03-20T02:50:28;95600.31;;;2.94;81.41
20027;BME280;10174;42.688;23.344;2023-03-20T02:55:51;95597.66;;;3.01;81.56
20027;BME280;10174;42.688;23.344;2023-03-20T02:58:26;95408.16;;;1.78;81.47
20027;BME280;10174;42.688;23.344;2023-03-20T03:00:59;95596.03;;;3.00;81.38
20027;BME280;10174;42.688;23.344;2023-03-20T03:03:31;95600.09;;;2.96;80.96
20027;BME280;10174;42.688;23.344;2023-03-20T03:06:03;95606.25;;;2.96;80.97
20027;BME280;10174;42.688;23.344;2023-03-20T03:08:36;95598.72;;;2.80;82.39
20027;BME280;10174;42.688;23.344;2023-03-20T03:11:08;95495.78;;;2.10;82.40
20027;BME280;10174;42.688;23.344;2023-03-20T03:13:37;95587.72;;;2.70;82.42
20027;BME280;10174;42.688;23.344;2023-03-20T03:16:09;95596.09;;;2.66;82.81
20027;BME280;10174;42.688;23.344;2023-03-20T03:18:37;95599.75;;;2.65;82.94
20027;BME280;10174;42.688;23.344;2023-03-20T03:21:06;95475.00;;;1.93;82.81
20027;BME280;10174;42.688;23.344;2023-03-20T03:23:39;95594.84;;;2.62;83.05
20027;BME280;10174;42.688;23.344;2023-03-20T03:26:11;95587.53;;;2.51;83.00
20027;BME280;10174;42.688;23.344;2023-03-20T03:28:48;95609.97;;;2.55;83.30
20027;BME280;10174;42.688;23.344;2023-03-20T03:31:16;95602.63;;;2.57;83.13
20027;BME280;10174;42.688;23.344;2023-03-20T03:33:48;95570.59;;;2.39;82.94
20027;BME280;10174;42.688;23.344;2023-03-20T03:36:34;95604.69;;;2.55;82.89
20027;BME280;10174;42.688;23.344;2023-03-20T03:42:30;95611.59;;;2.56;82.74
20027;BME280;10174;42.688;23.344;2023-03-20T03:45:14;95600.38;;;2.54;83.28
20027;BME280;10174;42.688;23.344;2023-03-20T03:47:57;95603.63;;;2.56;82.66
20027;BME280;10174;42.688;23.344;2023-03-20T03:50:30;95604.69;;;2.55;83.10
20027;BME280;10174;42.688;23.344;2023-03-20T03:53:03;95603.44;;;2.51;83.53
20027;BME280;10174;42.688;23.344;2023-03-20T03:55:37;95600.97;;;2.56;83.09
20027;BME280;10174;42.688;23.344;2023-03-20T03:58:07;95563.88;;;2.36;83.16
20027;BME280;10174;42.688;23.344;2023-03-20T04:00:34;95577.94;;;2.50;83.42
20027;BME280;10174;42.688;23.344;2023-03-20T04:03:00;95553.88;;;2.45;82.87
20027;BME280;10174;42.688;23.344;2023-03-20T04:05:29;95523.06;;;2.30;82.75
20027;BME280;10174;42.688;23.344;2023-03-20T04:07:58;95566.91;;;2.66;82.30
20027;BME280;10174;42.688;23.344;2023-03-20T04:10:25;95566.50;;;2.56;82.86
20027;BME280;10174;42.688;23.344;2023-03-20T04:12:50;95576.09;;;2.57;83.73
20027;BME280;10174;42.688;23.344;2023-03-20T04:15:17;95584.25;;;2.62;83.32
20027;BME280;10174;42.688;23.344;2023-03-20T04:17:44;95490.88;;;2.07;83.67
20027;BME280;10174;42.688;23.344;2023-03-20T04:20:10;95582.22;;;2.64;83.57
20027;BME280;10174;42.688;23.344;2023-03-20T04:22:36;95589.34;;;2.64;83.34
20027;BME280;10174;42.688;23.344;2023-03-20T04:25:05;95574.03;;;2.59;82.97
20027;BME280;10174;42.688;23.344;2023-03-20T04:27:31;95544.91;;;2.33;83.17
20027;BME280;10174;42.688;23.344;2023-03-20T04:29:56;95464.38;;;1.93;83.25
20027;BME280;10174;42.688;23.344;2023-03-20T04:32:22;95569.16;;;2.56;83.20
20027;BME280;10174;42.688;23.344;2023-03-20T04:34:47;95551.22;;;2.38;83.53
20027;BME280;10174;42.688;23.344;2023-03-20T04:37:13;95555.13;;;2.36;83.76
20027;BME280;10174;42.688;23.344;2023-03-20T04:39:39;95580.19;;;2.53;83.71
20027;BME280;10174;42.688;23.344;2023-03-20T04:42:06;95566.94;;;2.46;83.80
20027;BME280;10174;42.688;23.344;2023-03-20T04:44:32;95463.56;;;1.86;83.59
20027;BME280;10174;42.688;23.344;2023-03-20T04:46:58;95600.59;;;2.66;83.39
20027;BME280;10174;42.688;23.344;2023-03-20T04:49:23;95478.66;;;1.86;83.60
20027;BME280;10174;42.688;23.344;2023-03-20T04:51:49;95466.03;;;1.68;83.54
20027;BME280;10174;42.688;23.344;2023-03-20T04:54:14;95595.50;;;2.51;83.66
20027;BME280;10174;42.688;23.344;2023-03-20T04:56:40;95500.66;;;2.00;83.31
20027;BME280;10174;42.688;23.344;2023-03-20T04:59:05;95611.41;;;2.64;83.42
20027;BME280;10174;42.688;23.344;2023-03-20T05:01:31;95612.19;;;2.85;82.63
20027;BME280;10174;42.688;23.344;2023-03-20T05:03:56;95542.66;;;2.49;82.01
20027;BME280;10174;42.688;23.344;2023-03-20T05:06:26;95621.97;;;2.84;82.45
20027;BME280;10174;42.688;23.344;2023-03-20T05:08:52;95611.75;;;2.88;82.47
20027;BME280;10174;42.688;23.344;2023-03-20T05:11:17;95533.28;;;2.40;81.99
20027;BME280;10174;42.688;23.344;2023-03-20T05:13:42;95605.81;;;3.06;81.85
20027;BME280;10174;42.688;23.344;2023-03-20T05:16:08;95485.13;;;2.43;81.09
20027;BME280;10174;42.688;23.344;2023-03-20T05:18:33;95619.63;;;3.28;81.31
20027;BME280;10174;42.688;23.344;2023-03-20T05:20:59;95520.78;;;2.61;81.11
20027;BME280;10174;42.688;23.344;2023-03-20T05:23:25;95425.03;;;2.17;81.13
20027;BME280;10174;42.688;23.344;2023-03-20T05:25:50;95623.81;;;3.56;80.47
20027;BME280;10174;42.688;23.344;2023-03-20T05:28:16;95610.97;;;3.53;79.88
20027;BME280;10174;42.688;23.344;2023-03-20T05:30:41;95624.75;;;3.75;79.99
20027;BME280;10174;42.688;23.344;2023-03-20T05:33:06;95629.63;;;3.85;79.47
20027;BME280;10174;42.688;23.344;2023-03-20T05:35:32;95626.63;;;4.06;78.47
20027;BME280;10174;42.688;23.344;2023-03-20T05:37:57;95607.03;;;4.01;78.25
20027;BME280;10174;42.688;23.344;2023-03-20T05:40:23;95579.88;;;3.92;77.94
20027;BME280;10174;42.688;23.344;2023-03-20T05:42:49;95627.88;;;4.29;77.61
20027;BME280;10174;42.688;23.344;2023-03-20T05:45:15;95589.41;;;4.06;77.10
20027;BME280;10174;42.688;23.344;2023-03-20T05:47:41;95633.41;;;4.27;75.63
20027;BME280;10174;42.688;23.344;2023-03-20T05:50:07;95644.47;;;4.31;76.22
20027;BME280;10174;42.688;23.344;2023-03-20T05:52:32;95623.28;;;4.18;76.19
20027;BME280;10174;42.688;23.344;2023-03-20T05:54:58;95624.41;;;4.35;76.47
20027;BME280;10174;42.688;23.344;2023-03-20T05:57:23;95640.56;;;4.59;75.27
20027;BME280;10174;42.688;23.344;2023-03-20T05:59:48;95649.31;;;4.66;74.13
20027;BME280;10174;42.688;23.344;2023-03-20T06:02:14;95525.25;;;3.96;73.76
20027;BME280;10174;42.688;23.344;2023-03-20T06:04:40;95515.84;;;3.93;73.06
20027;BME280;10174;42.688;23.344;2023-03-20T06:07:05;95548.81;;;4.18;73.34
20027;BME280;10174;42.688;23.344;2023-03-20T06:09:31;95619.75;;;4.74;72.87
20027;BME280;10174;42.688;23.344;2023-03-20T06:11:57;95627.25;;;4.84;72.79
20027;BME280;10174;42.688;23.344;2023-03-20T06:14:22;95554.13;;;4.43;72.79
20027;BME280;10174;42.688;23.344;2023-03-20T06:16:47;95616.56;;;5.09;72.11
20027;BME280;10174;42.688;23.344;2023-03-20T06:19:13;95639.28;;;5.49;71.08
20027;BME280;10174;42.688;23.344;2023-03-20T06:21:38;95558.97;;;4.71;70.85
20027;BME280;10174;42.688;23.344;2023-03-20T06:24:04;95603.31;;;5.03;71.41
20027;BME280;10174;42.688;23.344;2023-03-20T06:26:30;95648.09;;;5.31;71.56
20027;BME280;10174;42.688;23.344;2023-03-20T06:28:55;95628.72;;;5.42;70.92
20027;BME280;10174;42.688;23.344;2023-03-20T06:31:21;95627.38;;;5.51;70.15
20027;BME280;10174;42.688;23.344;2023-03-20T06:33:46;95644.09;;;5.59;69.78
20027;BME280;10174;42.688;23.344;2023-03-20T06:36:12;95626.41;;;5.27;70.80
20027;BME280;10174;42.688;23.344;2023-03-20T06:38:38;95642.31;;;5.34;71.42
20027;BME280;10174;42.688;23.344;2023-03-20T06:41:04;95604.13;;;5.22;70.82
20027;BME280;10174;42.688;23.344;2023-03-20T06:43:29;95640.53;;;5.46;70.91
20027;BME280;10174;42.688;23.344;2023-03-20T06:45:55;95590.38;;;5.25;70.79
20027;BME280;10174;42.688;23.344;2023-03-20T06:48:20;95538.00;;;5.00;70.36
20027;BME280;10174;42.688;23.344;2023-03-20T06:50:50;95636.00;;;5.84;69.37
20027;BME280;10174;42.688;23.344;2023-03-20T06:53:15;95626.13;;;6.03;69.54
20027;BME280;10174;42.688;23.344;2023-03-20T06:55:42;95630.09;;;6.54;67.76
20027;BME280;10174;42.688;23.344;2023-03-20T06:58:07;95598.53;;;6.51;66.42
20027;BME280;10174;42.688;23.344;2023-03-20T07:00:33;95627.00;;;6.93;65.69
20027;BME280;10174;42.688;23.344;2023-03-20T07:02:58;95562.06;;;6.69;65.47
20027;BME280;10174;42.688;23.344;2023-03-20T07:05:24;95622.91;;;7.26;64.61
20027;BME280;10174;42.688;23.344;2023-03-20T07:07:50;95621.84;;;7.51;63.84
20027;BME280;10174;42.688;23.344;2023-03-20T07:10:16;95595.63;;;7.64;63.29
20027;BME280;10174;42.688;23.344;2023-03-20T07:12:41;95451.16;;;6.90;62.37
20027;BME280;10174;42.688;23.344;2023-03-20T07:15:08;95626.22;;;7.69;62.63
20027;BME280;10174;42.688;23.344;2023-03-20T07:17:34;95622.13;;;7.78;62.69
20027;BME280;10174;42.688;23.344;2023-03-20T07:19:59;95614.41;;;8.10;62.08
20027;BME280;10174;42.688;23.344;2023-03-20T07:22:27;95600.31;;;8.15;60.96
20027;BME280;10174;42.688;23.344;2023-03-20T07:24:53;95514.84;;;7.91;60.43
20027;BME280;10174;42.688;23.344;2023-03-20T07:27:19;95566.69;;;8.19;60.58
20027;BME280;10174;42.688;23.344;2023-03-20T07:29:45;95604.56;;;8.28;60.69
20027;BME280;10174;42.688;23.344;2023-03-20T07:32:11;95562.03;;;7.97;61.03
20027;BME280;10174;42.688;23.344;2023-03-20T07:34:36;95612.53;;;8.39;60.87
20027;BME280;10174;42.688;23.344;2023-03-20T07:37:03;95596.44;;;8.68;59.60
20027;BME280;10174;42.688;23.344;2023-03-20T07:39:28;95521.50;;;8.23;59.69
20027;BME280;10174;42.688;23.344;2023-03-20T07:41:54;95620.88;;;8.72;59.35
20027;BME280;10174;42.688;23.344;2023-03-20T07:44:19;95458.06;;;7.72;58.83
20027;BME280;10174;42.688;23.344;2023-03-20T07:46:45;95589.53;;;8.72;58.42
20027;BME280;10174;42.688;23.344;2023-03-20T07:49:15;95604.06;;;8.77;58.95
20027;BME280;10174;42.688;23.344;2023-03-20T07:51:43;95617.94;;;8.90;58.91
20027;BME280;10174;42.688;23.344;2023-03-20T07:54:09;95522.34;;;8.57;58.33
20027;BME280;10174;42.688;23.344;2023-03-20T07:56:34;95608.81;;;9.25;57.99
20027;BME280;10174;42.688;23.344;2023-03-20T07:59:00;95623.28;;;9.47;56.55
20027;BME280;10174;42.688;23.344;2023-03-20T08:01:25;95589.78;;;9.27;56.74
20027;BME280;10174;42.688;23.344;2023-03-20T08:03:51;95609.59;;;9.26;57.33
20027;BME280;10174;42.688;23.344;2023-03-20T08:06:16;95618.19;;;9.28;56.98
20027;BME280;10174;42.688;23.344;2023-03-20T08:08:42;95612.97;;;9.38;56.89
20027;BME280;10174;42.688;23.344;2023-03-20T08:11:09;95596.78;;;9.72;56.01
20027;BME280;10174;42.688;23.344;2023-03-20T08:13:35;95605.72;;;10.05;54.86
20027;BME280;10174;42.688;23.344;2023-03-20T08:16:00;95589.78;;;10.48;54.47
20027;BME280;10174;42.688;23.344;2023-03-20T08:18:25;95611.19;;;10.70;53.40
20027;BME280;10174;42.688;23.344;2023-03-20T08:20:51;95607.56;;;10.54;53.25
20027;BME280;10174;42.688;23.344;2023-03-20T08:23:16;95586.06;;;10.27;53.42
20027;BME280;10174;42.688;23.344;2023-03-20T08:25:46;95504.97;;;9.65;54.11
20027;BME280;10174;42.688;23.344;2023-03-20T08:28:12;95599.44;;;10.49;53.57
20027;BME280;10174;42.688;23.344;2023-03-20T08:30:37;95614.44;;;11.10;52.85
20027;BME280;10174;42.688;23.344;2023-03-20T08:33:02;95606.69;;;12.76;49.08
20027;BME280;10174;42.688;23.344;2023-03-20T08:35:28;95619.63;;;14.61;44.30
20027;BME280;10174;42.688;23.344;2023-03-20T08:37:53;95607.16;;;15.58;41.21
20027;BME280;10174;42.688;23.344;2023-03-20T08:40:19;95607.22;;;15.77;39.98
20027;BME280;10174;42.688;23.344;2023-03-20T08:42:44;95573.06;;;15.33;41.13
20027;BME280;10174;42.688;23.344;2023-03-20T08:45:10;95576.97;;;15.46;40.12
20027;BME280;10174;42.688;23.344;2023-03-20T08:47:36;95579.63;;;15.99;39.41
20027;BME280;10174;42.688;23.344;2023-03-20T08:50:01;95571.69;;;14.32;41.81
20027;BME280;10174;42.688;23.344;2023-03-20T08:52:27;95594.75;;;15.28;41.31
20027;BME280;10174;42.688;23.344;2023-03-20T08:54:52;95576.22;;;15.89;40.26
20027;BME280;10174;42.688;23.344;2023-03-20T08:57:18;95607.97;;;15.29;39.84
20027;BME280;10174;42.688;23.344;2023-03-20T08:59:43;95580.41;;;15.27;39.90
20027;BME280;10174;42.688;23.344;2023-03-20T09:02:10;95534.75;;;14.62;40.83
20027;BME280;10174;42.688;23.344;2023-03-20T09:04:36;95576.47;;;16.11;39.62
20027;BME280;10174;42.688;23.344;2023-03-20T09:07:02;95531.69;;;16.52;37.40
20027;BME280;10174;42.688;23.344;2023-03-20T09:09:28;95586.34;;;16.97;37.89
20027;BME280;10174;42.688;23.344;2023-03-20T09:11:58;95572.56;;;17.68;35.73
20027;BME280;10174;42.688;23.344;2023-03-20T09:14:24;95577.69;;;16.95;36.97
20027;BME280;10174;42.688;23.344;2023-03-20T09:16:50;95586.41;;;16.73;37.41
20027;BME280;10174;42.688;23.344;2023-03-20T09:19:16;95585.47;;;16.64;37.55
20027;BME280;10174;42.688;23.344;2023-03-20T09:21:42;95580.44;;;17.09;36.79
20027;BME280;10174;42.688;23.344;2023-03-20T09:24:08;95521.66;;;19.06;33.64
20027;BME280;10174;42.688;23.344;2023-03-20T09:26:33;95561.00;;;20.11;31.89
20027;BME280;10174;42.688;23.344;2023-03-20T09:28:59;95519.53;;;19.34;32.41
20027;BME280;10174;42.688;23.344;2023-03-20T09:31:24;95521.09;;;18.50;33.80
20027;BME280;10174;42.688;23.344;2023-03-20T09:33:50;95565.50;;;18.09;34.72
20027;BME280;10174;42.688;23.344;2023-03-20T09:36:15;95496.72;;;18.90;33.23
20027;BME280;10174;42.688;23.344;2023-03-20T09:38:41;95569.56;;;20.97;30.70
20027;BME280;10174;42.688;23.344;2023-03-20T09:41:21;95523.66;;;19.63;32.57
20027;BME280;10174;42.688;23.344;2023-03-20T09:54:27;95512.25;;;22.34;29.32
20027;BME280;10174;42.688;23.344;2023-03-20T09:56:57;95484.66;;;23.40;27.56
20027;BME280;10174;42.688;23.344;2023-03-20T09:59:25;95509.38;;;22.31;28.76
20027;BME280;10174;42.688;23.344;2023-03-20T10:01:58;95484.19;;;23.38;27.14
20027;BME280;10174;42.688;23.344;2023-03-20T10:04:28;95483.78;;;24.79;25.36
20027;BME280;10174;42.688;23.344;2023-03-20T10:06:54;95494.72;;;23.85;26.75
20027;BME280;10174;42.688;23.344;2023-03-20T10:09:25;95491.69;;;21.39;29.55
20027;BME280;10174;42.688;23.344;2023-03-20T10:15:09;95481.38;;;21.44;29.57
20027;BME280;10174;42.688;23.344;2023-03-20T10:20:21;95473.53;;;21.34;30.32
20027;BME280;10174;42.688;23.344;2023-03-20T10:22:53;95466.09;;;21.43;29.63
20027;BME280;10174;42.688;23.344;2023-03-20T10:25:40;95474.22;;;21.91;28.67
20027;BME280;10174;42.688;23.344;2023-03-20T10:36:30;95454.44;;;26.10;23.26
20027;BME280;10174;42.688;23.344;2023-03-20T10:39:11;95455.56;;;24.25;25.99
20027;BME280;10174;42.688;23.344;2023-03-20T10:41:46;95390.63;;;24.17;25.68
20027;BME280;10174;42.688;23.344;2023-03-20T10:44:19;95435.75;;;23.79;26.22
20027;BME280;10174;42.688;23.344;2023-03-20T10:46:50;95432.00;;;23.34;26.63
20027;BME280;10174;42.688;23.344;2023-03-20T10:49:53;95426.81;;;24.76;25.53
20027;BME280;10174;42.688;23.344;2023-03-20T10:52:30;95416.84;;;24.14;25.61
20027;BME280;10174;42.688;23.344;2023-03-20T10:57:39;95409.59;;;23.69;26.27
20027;BME280;10174;42.688;23.344;2023-03-20T11:00:27;95411.75;;;24.57;25.34
20027;BME280;10174;42.688;23.344;2023-03-20T11:02:53;95414.16;;;24.02;25.34
20027;BME280;10174;42.688;23.344;2023-03-20T11:05:27;95418.06;;;23.76;25.33
20027;BME280;10174;42.688;23.344;2023-03-20T11:08:06;95398.88;;;24.74;25.14
20027;BME280;10174;42.688;23.344;2023-03-20T11:10:34;95408.22;;;25.01;24.42
20027;BME280;10174;42.688;23.344;2023-03-20T11:13:32;95404.09;;;26.29;22.79
20027;BME280;10174;42.688;23.344;2023-03-20T11:16:29;95377.75;;;27.94;21.22
20027;BME280;10174;42.688;23.344;2023-03-20T11:18:53;95378.47;;;26.45;22.17
20027;BME280;10174;42.688;23.344;2023-03-20T11:21:24;95394.25;;;25.73;22.54
20027;BME280;10174;42.688;23.344;2023-03-20T11:23:51;95324.78;;;24.17;23.78
20027;BME280;10174;42.688;23.344;2023-03-20T11:26:31;95355.03;;;23.39;24.12
20027;BME280;10174;42.688;23.344;2023-03-20T11:28:59;95289.91;;;23.61;24.37
20027;BME280;10174;42.688;23.344;2023-03-20T11:31:28;95365.56;;;25.07;23.41
20027;BME280;10174;42.688;23.344;2023-03-20T11:34:22;95357.97;;;25.68;23.19
20027;BME280;10174;42.688;23.344;2023-03-20T11:36:57;95362.56;;;25.80;23.09
20027;BME280;10174;42.688;23.344;2023-03-20T11:39:28;95308.69;;;24.76;22.76
20027;BME280;10174;42.688;23.344;2023-03-20T11:41:58;95309.22;;;24.81;23.05
20027;BME280;10174;42.688;23.344;2023-03-20T11:44:26;95346.44;;;25.42;22.23
20027;BME280;10174;42.688;23.344;2023-03-20T11:47:01;95327.34;;;26.67;20.09
20027;BME280;10174;42.688;23.344;2023-03-20T11:49:31;95316.16;;;26.60;20.33
20027;BME280;10174;42.688;23.344;2023-03-20T11:52:09;95330.47;;;25.32;21.37
20027;BME280;10174;42.688;23.344;2023-03-20T11:54:36;95280.31;;;26.13;21.49
20027;BME280;10174;42.688;23.344;2023-03-20T11:57:03;95300.13;;;25.84;22.48
20027;BME280;10174;42.688;23.344;2023-03-20T11:59:31;95321.09;;;26.08;21.54
20027;BME280;10174;42.688;23.344;2023-03-20T12:01:58;95301.97;;;27.58;19.73
20027;BME280;10174;42.688;23.344;2023-03-20T12:04:28;95279.16;;;25.95;20.54
20027;BME280;10174;42.688;23.344;2023-03-20T12:07:13;95267.34;;;25.55;20.29
20027;BME280;10174;42.688;23.344;2023-03-20T12:09:47;95287.03;;;26.36;20.22
20027;BME280;10174;42.688;23.344;2023-03-20T12:12:37;95286.09;;;26.28;20.81
20027;BME280;10174;42.688;23.344;2023-03-20T12:17:55;95284.09;;;27.44;19.85
20027;BME280;10174;42.688;23.344;2023-03-20T12:25:47;95275.53;;;26.53;19.21
20027;BME280;10174;42.688;23.344;2023-03-20T12:28:32;95288.84;;;25.69;19.50
20027;BME280;10174;42.688;23.344;2023-03-20T12:31:12;95228.16;;;25.23;20.07
20027;BME280;10174;42.688;23.344;2023-03-20T12:33:56;95278.44;;;26.83;18.61
20027;BME280;10174;42.688;23.344;2023-03-20T12:36:32;95268.75;;;26.70;18.11
20027;BME280;10174;42.688;23.344;2023-03-20T12:39:01;95239.03;;;25.74;18.63
20027;BME280;10174;42.688;23.344;2023-03-20T12:41:33;95219.22;;;25.10;18.91
20027;BME280;10174;42.688;23.344;2023-03-20T12:46:54;95236.09;;;25.28;19.17
20027;BME280;10174;42.688;23.344;2023-03-20T12:52:05;95239.56;;;24.10;19.64
20027;BME280;10174;42.688;23.344;2023-03-20T12:58:08;95241.63;;;22.66;20.97
20027;BME280;10174;42.688;23.344;2023-03-20T13:00:53;95224.72;;;21.94;21.69
20027;BME280;10174;42.688;23.344;2023-03-20T13:03:44;95232.50;;;22.04;22.27
20027;BME280;10174;42.688;23.344;2023-03-20T13:06:36;95222.19;;;21.76;22.01
20027;BME280;10174;42.688;23.344;2023-03-20T13:09:55;95228.56;;;21.80;22.72
20027;BME280;10174;42.688;23.344;2023-03-20T13:17:54;95176.16;;;21.24;22.45
20027;BME280;10174;42.688;23.344;2023-03-20T13:20:27;95197.84;;;21.29;22.94
20027;BME280;10174;42.688;23.344;2023-03-20T13:39:43;95116.69;;;21.08;22.92
20027;BME280;10174;42.688;23.344;2023-03-20T13:42:19;95183.41;;;21.62;23.53
20027;BME280;10174;42.688;23.344;2023-03-20T13:44:46;95093.28;;;21.07;23.12
20027;BME280;10174;42.688;23.344;2023-03-20T13:47:23;95178.19;;;21.69;23.09
20027;BME280;10174;42.688;23.344;2023-03-20T13:50:18;95149.03;;;21.61;23.04
20027;BME280;10174;42.688;23.344;2023-03-20T13:52:54;95133.44;;;21.40;22.88
20027;BME280;10174;42.688;23.344;2023-03-20T13:55:31;95168.34;;;21.56;22.64
20027;BME280;10174;42.688;23.344;2023-03-20T14:01:26;95136.78;;;21.46;23.29
20027;BME280;10174;42.688;23.344;2023-03-20T14:03:49;95117.22;;;21.23;22.43
20027;BME280;10174;42.688;23.344;2023-03-20T14:08:54;95134.03;;;21.46;22.71
20027;BME280;10174;42.688;23.344;2023-03-20T14:13:52;95070.69;;;21.31;22.70
20027;BME280;10174;42.688;23.344;2023-03-20T14:16:19;95064.28;;;21.15;21.96
20027;BME280;10174;42.688;23.344;2023-03-20T14:18:55;95143.59;;;21.73;20.90
20027;BME280;10174;42.688;23.344;2023-03-20T14:21:28;95079.91;;;21.27;22.18
20027;BME280;10174;42.688;23.344;2023-03-20T14:24:05;95138.34;;;21.80;23.81
20027;BME280;10174;42.688;23.344;2023-03-20T14:26:37;95076.91;;;21.53;22.89
20027;BME280;10174;42.688;23.344;2023-03-20T14:31:34;95129.41;;;21.59;22.70
20027;BME280;10174;42.688;23.344;2023-03-20T14:37:02;95118.31;;;21.76;21.97
20027;BME280;10174;42.688;23.344;2023-03-20T14:47:59;95121.94;;;21.47;25.79
20027;BME280;10174;42.688;23.344;2023-03-20T14:50:50;95104.78;;;21.13;22.30
20027;BME280;10174;42.688;23.344;2023-03-20T14:53:23;95113.34;;;21.24;25.95
20027;BME280;10174;42.688;23.344;2023-03-20T14:58:40;95113.50;;;21.06;23.78
20027;BME280;10174;42.688;23.344;2023-03-20T15:01:13;95105.72;;;20.75;23.53
20027;BME280;10174;42.688;23.344;2023-03-20T15:03:40;95126.03;;;20.65;28.35
20027;BME280;10174;42.688;23.344;2023-03-20T15:06:08;95105.97;;;20.61;27.04
20027;BME280;10174;42.688;23.344;2023-03-20T15:08:41;95110.03;;;20.55;30.09
20027;BME280;10174;42.688;23.344;2023-03-20T15:11:09;95056.22;;;20.13;29.19
20027;BME280;10174;42.688;23.344;2023-03-20T15:13:36;95120.19;;;20.45;29.16